sensor_id;sensor_type;location;lat;lon;timestamp;pressure;altitude;pressure_sealevel;temperature;humidity
26443;BME280;5563;52.296;6.806;2023-02-04T00:00:38;103014.59;;;5.71;76.63
26443;BME280;5563;52.296;6.806;2023-02-04T00:03:11;103004.84;;;5.73;76.53
26443;BME280;5563;52.296;6.806;2023-02-04T00:05:44;103011.78;;;5.77;77.01
26443;BME280;5563;52.296;6.806;2023-02-04T00:08:17;103006.53;;;5.75;77.44
26443;BME280;5563;52.296;6.806;2023-02-04T00:10:44;103016.09;;;5.81;77.09
26443;BME280;5563;52.296;6.806;2023-02-04T00:13:19;103005.69;;;5.75;77.13
26443;BME280;5563;52.296;6.806;2023-02-04T00:15:46;103026.63;;;5.84;77.56
26443;BME280;5563;52.296;6.806;2023-02-04T00:18:19;103026.59;;;5.85;77.22
26443;BME280;5563;52.296;6.806;2023-02-04T00:20:54;103030.06;;;5.87;77.89
26443;BME280;5563;52.296;6.806;2023-02-04T00:23:27;103029.19;;;5.87;77.47
26443;BME280;5563;52.296;6.806;2023-02-04T00:26:00;103030.88;;;5.89;77.81
26443;BME280;5563;52.296;6.806;2023-02-04T00:28:33;103028.19;;;5.91;77.95
26443;BME280;5563;52.296;6.806;2023-02-04T00:31:00;103028.19;;;5.91;78.01
26443;BME280;5563;52.296;6.806;2023-02-04T00:33:33;103027.38;;;5.89;78.20
26443;BME280;5563;52.296;6.806;2023-02-04T00:36:00;103027.41;;;5.87;78.93
26443;BME280;5563;52.296;6.806;2023-02-04T00:38:33;103039.56;;;5.94;78.04
26443;BME280;5563;52.296;6.806;2023-02-04T00:41:06;103041.38;;;5.94;78.04
26443;BME280;5563;52.296;6.806;2023-02-04T00:43:33;103047.44;;;5.97;78.04
26443;BME280;5563;52.296;6.806;2023-02-04T00:46:06;103050.16;;;5.96;77.18
26443;BME280;5563;52.296;6.806;2023-02-04T00:48:33;103053.69;;;5.95;77.36
26443;BME280;5563;52.296;6.806;2023-02-04T00:51:07;103043.19;;;5.92;77.31
26443;BME280;5563;52.296;6.806;2023-02-04T00:53:34;103049.22;;;5.97;77.97
26443;BME280;5563;52.296;6.806;2023-02-04T00:56:07;103048.38;;;5.95;77.38
26443;BME280;5563;52.296;6.806;2023-02-04T00:58:34;103055.50;;;5.93;78.15
26443;BME280;5563;52.296;6.806;2023-02-04T01:01:07;103057.22;;;5.95;78.16
26443;BME280;5563;52.296;6.806;2023-02-04T01:03:34;103059.81;;;5.97;78.42
26443;BME280;5563;52.296;6.806;2023-02-04T01:06:07;103064.19;;;5.98;79.54
26443;BME280;5563;52.296;6.806;2023-02-04T01:08:34;103073.00;;;5.98;78.71
26443;BME280;5563;52.296;6.806;2023-02-04T01:11:07;103068.72;;;5.93;78.73
26443;BME280;5563;52.296;6.806;2023-02-04T01:13:34;103078.44;;;5.94;78.29
26443;BME280;5563;52.296;6.806;2023-02-04T01:16:00;103089.81;;;5.97;78.05
26443;BME280;5563;52.296;6.806;2023-02-04T01:18:34;103093.34;;;5.96;78.69
26443;BME280;5563;52.296;6.806;2023-02-04T01:21:07;103095.16;;;5.96;78.11
26443;BME280;5563;52.296;6.806;2023-02-04T01:23:40;103086.38;;;5.94;78.96
26443;BME280;5563;52.296;6.806;2023-02-04T01:26:18;103096.09;;;5.93;78.97
26443;BME280;5563;52.296;6.806;2023-02-04T01:28:52;103097.00;;;5.92;78.76
26443;BME280;5563;52.296;6.806;2023-02-04T01:31:19;103104.13;;;5.90;78.23
26443;BME280;5563;52.296;6.806;2023-02-04T01:33:55;103103.19;;;5.91;78.48
26443;BME280;5563;52.296;6.806;2023-02-04T01:36:26;103093.59;;;5.87;78.80
26443;BME280;5563;52.296;6.806;2023-02-04T01:38:59;103102.41;;;5.88;79.03
26443;BME280;5563;52.296;6.806;2023-02-04T01:41:26;103095.44;;;5.82;78.97
26443;BME280;5563;52.296;6.806;2023-02-04T01:43:59;103103.44;;;5.81;79.32
26443;BME280;5563;52.296;6.806;2023-02-04T01:46:26;103106.81;;;5.87;79.47
26443;BME280;5563;52.296;6.806;2023-02-04T01:48:59;103105.13;;;5.85;79.15
26443;BME280;5563;52.296;6.806;2023-02-04T01:51:34;103112.16;;;5.86;79.21
26443;BME280;5563;52.296;6.806;2023-02-04T01:54:14;103119.22;;;5.87;79.18
26443;BME280;5563;52.296;6.806;2023-02-04T01:56:44;103113.88;;;5.88;79.88
26443;BME280;5563;52.296;6.806;2023-02-04T01:59:18;103108.56;;;5.88;79.32
26443;BME280;5563;52.296;6.806;2023-02-04T02:01:51;103110.34;;;5.88;79.05
26443;BME280;5563;52.296;6.806;2023-02-04T02:04:23;103117.44;;;5.86;79.30
26443;BME280;5563;52.296;6.806;2023-02-04T02:07:01;103120.06;;;5.87;79.60
26443;BME280;5563;52.296;6.806;2023-02-04T02:09:30;103115.69;;;5.86;79.52
26443;BME280;5563;52.296;6.806;2023-02-04T02:12:04;103121.81;;;5.88;79.43
26443;BME280;5563;52.296;6.806;2023-02-04T02:14:32;103121.78;;;5.90;80.15
26443;BME280;5563;52.296;6.806;2023-02-04T02:17:05;103123.50;;;5.92;80.30
26443;BME280;5563;52.296;6.806;2023-02-04T02:19:35;103130.50;;;5.93;79.93
26443;BME280;5563;52.296;6.806;2023-02-04T02:22:24;103131.44;;;5.92;79.18
26443;BME280;5563;52.296;6.806;2023-02-04T02:24:52;103124.41;;;5.90;79.52
26443;BME280;5563;52.296;6.806;2023-02-04T02:27:25;103135.84;;;5.92;79.91
26443;BME280;5563;52.296;6.806;2023-02-04T02:29:52;103133.25;;;5.90;79.59
26443;BME280;5563;52.296;6.806;2023-02-04T02:32:19;103149.03;;;5.93;79.34
26443;BME280;5563;52.296;6.806;2023-02-04T02:34:52;103132.41;;;5.88;79.49
26443;BME280;5563;52.296;6.806;2023-02-04T02:37:25;103147.28;;;5.94;79.66
26443;BME280;5563;52.296;6.806;2023-02-04T02:39:52;103138.50;;;5.92;79.96
26443;BME280;5563;52.296;6.806;2023-02-04T02:42:25;103146.47;;;5.90;80.00
26443;BME280;5563;52.296;6.806;2023-02-04T02:44:52;103143.00;;;5.88;79.85
26443;BME280;5563;52.296;6.806;2023-02-04T02:47:25;103152.56;;;5.94;80.18
26443;BME280;5563;52.296;6.806;2023-02-04T02:50:00;103149.09;;;5.92;79.64
26443;BME280;5563;52.296;6.806;2023-02-04T02:52:27;103160.56;;;5.92;80.10
26443;BME280;5563;52.296;6.806;2023-02-04T02:55:00;103147.38;;;5.89;80.11
26443;BME280;5563;52.296;6.806;2023-02-04T02:57:27;103161.44;;;5.91;80.37
26443;BME280;5563;52.296;6.806;2023-02-04T03:00:00;103152.66;;;5.89;80.42
26443;BME280;5563;52.296;6.806;2023-02-04T03:02:28;103147.44;;;5.86;80.58
26443;BME280;5563;52.296;6.806;2023-02-04T03:05:00;103158.00;;;5.88;80.30
26443;BME280;5563;52.296;6.806;2023-02-04T03:07:27;103155.47;;;5.83;80.34
26443;BME280;5563;52.296;6.806;2023-02-04T03:10:01;103153.69;;;5.82;80.70
26443;BME280;5563;52.296;6.806;2023-02-04T03:12:28;103167.75;;;5.86;80.56
26443;BME280;5563;52.296;6.806;2023-02-04T03:15:03;103166.91;;;5.85;81.14
26443;BME280;5563;52.296;6.806;2023-02-04T03:17:30;103160.78;;;5.83;81.34
26443;BME280;5563;52.296;6.806;2023-02-04T03:19:57;103176.56;;;5.86;81.36
26443;BME280;5563;52.296;6.806;2023-02-04T03:22:30;103172.19;;;5.85;81.09
26443;BME280;5563;52.296;6.806;2023-02-04T03:25:10;103181.00;;;5.86;81.00
26443;BME280;5563;52.296;6.806;2023-02-04T03:27:43;103175.78;;;5.83;81.30
26443;BME280;5563;52.296;6.806;2023-02-04T03:30:10;103181.94;;;5.83;81.07
26443;BME280;5563;52.296;6.806;2023-02-04T03:32:43;103189.00;;;5.83;80.78
26443;BME280;5563;52.296;6.806;2023-02-04T03:35:10;103178.44;;;5.81;80.93
26443;BME280;5563;52.296;6.806;2023-02-04T03:37:43;103174.03;;;5.80;81.03
26443;BME280;5563;52.296;6.806;2023-02-04T03:40:16;103184.69;;;5.77;81.11
26443;BME280;5563;52.296;6.806;2023-02-04T03:42:43;103182.94;;;5.78;81.63
26443;BME280;5563;52.296;6.806;2023-02-04T03:45:16;103184.78;;;5.74;81.22
26443;BME280;5563;52.296;6.806;2023-02-04T03:47:43;103195.38;;;5.74;81.86
26443;BME280;5563;52.296;6.806;2023-02-04T03:50:16;103197.19;;;5.72;81.49
26443;BME280;5563;52.296;6.806;2023-02-04T03:52:43;103206.13;;;5.67;81.41
26443;BME280;5563;52.296;6.806;2023-02-04T03:55:16;103201.72;;;5.67;81.61
26443;BME280;5563;52.296;6.806;2023-02-04T03:57:43;103203.53;;;5.65;81.78
26443;BME280;5563;52.296;6.806;2023-02-04T04:00:16;103211.41;;;5.67;81.49
26443;BME280;5563;52.296;6.806;2023-02-04T04:02:43;103215.00;;;5.64;81.98
26443;BME280;5563;52.296;6.806;2023-02-04T04:05:16;103205.31;;;5.63;82.39
26443;BME280;5563;52.296;6.806;2023-02-04T04:07:43;103204.41;;;5.64;81.84
26443;BME280;5563;52.296;6.806;2023-02-04T04:10:11;103205.31;;;5.63;81.94
26443;BME280;5563;52.296;6.806;2023-02-04T04:12:44;103206.25;;;5.62;82.00
26443;BME280;5563;52.296;6.806;2023-02-04T04:15:11;103208.88;;;5.62;81.93
26443;BME280;5563;52.296;6.806;2023-02-04T04:17:44;103215.06;;;5.61;81.93
26443;BME280;5563;52.296;6.806;2023-02-04T04:20:11;103215.06;;;5.61;81.76
26443;BME280;5563;52.296;6.806;2023-02-04T04:22:58;103215.09;;;5.60;81.96
26443;BME280;5563;52.296;6.806;2023-02-04T04:25:25;103215.09;;;5.60;82.18
26443;BME280;5563;52.296;6.806;2023-02-04T04:27:58;103218.59;;;5.62;82.20
26443;BME280;5563;52.296;6.806;2023-02-04T04:30:25;103223.00;;;5.61;82.25
26443;BME280;5563;52.296;6.806;2023-02-04T04:32:59;103213.38;;;5.59;82.03
26443;BME280;5563;52.296;6.806;2023-02-04T04:35:25;103216.00;;;5.60;82.25
26443;BME280;5563;52.296;6.806;2023-02-04T04:37:58;103228.34;;;5.60;82.12
26443;BME280;5563;52.296;6.806;2023-02-04T04:40:31;103229.25;;;5.57;82.42
26443;BME280;5563;52.296;6.806;2023-02-04T04:43:04;103237.19;;;5.57;82.35
26443;BME280;5563;52.296;6.806;2023-02-04T04:45:31;103251.44;;;5.53;82.55
26443;BME280;5563;52.296;6.806;2023-02-04T04:47:58;103257.56;;;5.53;82.92
26443;BME280;5563;52.296;6.806;2023-02-04T04:50:31;103260.22;;;5.53;82.66
26443;BME280;5563;52.296;6.806;2023-02-04T04:52:58;103256.72;;;5.53;82.94
26443;BME280;5563;52.296;6.806;2023-02-04T04:55:31;103253.22;;;5.51;82.71
26443;BME280;5563;52.296;6.806;2023-02-04T04:57:59;103257.59;;;5.52;82.89
26443;BME280;5563;52.296;6.806;2023-02-04T05:00:33;103254.06;;;5.53;82.94
26443;BME280;5563;52.296;6.806;2023-02-04T05:03:00;103260.25;;;5.52;83.44
26443;BME280;5563;52.296;6.806;2023-02-04T05:05:33;103256.75;;;5.50;83.35
26443;BME280;5563;52.296;6.806;2023-02-04T05:08:11;103260.22;;;5.55;83.25
26443;BME280;5563;52.296;6.806;2023-02-04T05:10:39;103269.03;;;5.54;83.61
26443;BME280;5563;52.296;6.806;2023-02-04T05:13:12;103269.94;;;5.53;83.24
26443;BME280;5563;52.296;6.806;2023-02-04T05:15:39;103270.84;;;5.52;83.43
26443;BME280;5563;52.296;6.806;2023-02-04T05:18:12;103262.13;;;5.47;83.34
26443;BME280;5563;52.296;6.806;2023-02-04T05:20:39;103283.22;;;5.50;83.53
26443;BME280;5563;52.296;6.806;2023-02-04T05:23:12;103289.44;;;5.49;83.60
26443;BME280;5563;52.296;6.806;2023-02-04T05:25:39;103292.00;;;5.52;83.97
26443;BME280;5563;52.296;6.806;2023-02-04T05:28:12;103282.41;;;5.46;83.62
26443;BME280;5563;52.296;6.806;2023-02-04T05:30:39;103291.16;;;5.50;83.78
26443;BME280;5563;52.296;6.806;2023-02-04T05:33:12;103286.75;;;5.50;83.93
26443;BME280;5563;52.296;6.806;2023-02-04T05:35:39;103282.41;;;5.48;84.00
26443;BME280;5563;52.296;6.806;2023-02-04T05:38:06;103300.06;;;5.47;83.97
26443;BME280;5563;52.296;6.806;2023-02-04T05:40:39;103308.88;;;5.48;83.89
26443;BME280;5563;52.296;6.806;2023-02-04T05:43:06;103307.16;;;5.45;83.95
26443;BME280;5563;52.296;6.806;2023-02-04T05:45:39;103301.00;;;5.43;83.91
26443;BME280;5563;52.296;6.806;2023-02-04T05:48:06;103295.81;;;5.39;83.84
26443;BME280;5563;52.296;6.806;2023-02-04T05:50:39;103307.22;;;5.41;83.88
26443;BME280;5563;52.296;6.806;2023-02-04T05:53:06;103305.56;;;5.37;84.01
26443;BME280;5563;52.296;6.806;2023-02-04T05:55:39;103303.75;;;5.37;84.01
26443;BME280;5563;52.296;6.806;2023-02-04T05:58:06;103302.09;;;5.33;84.23
26443;BME280;5563;52.296;6.806;2023-02-04T06:00:39;103308.28;;;5.32;84.56
26443;BME280;5563;52.296;6.806;2023-02-04T06:03:06;103307.50;;;5.27;84.22
26443;BME280;5563;52.296;6.806;2023-02-04T06:05:39;103314.56;;;5.27;84.21
26443;BME280;5563;52.296;6.806;2023-02-04T06:08:12;103307.63;;;5.23;84.60
26443;BME280;5563;52.296;6.806;2023-02-04T06:10:41;103305.94;;;5.17;84.55
26443;BME280;5563;52.296;6.806;2023-02-04T06:13:14;103313.00;;;5.17;84.91
26443;BME280;5563;52.296;6.806;2023-02-04T06:15:41;103309.56;;;5.13;84.81
26443;BME280;5563;52.296;6.806;2023-02-04T06:18:14;103319.25;;;5.13;84.67
26443;BME280;5563;52.296;6.806;2023-02-04T06:20:41;103318.41;;;5.11;85.20
26443;BME280;5563;52.296;6.806;2023-02-04T06:23:28;103323.75;;;5.08;84.86
26443;BME280;5563;52.296;6.806;2023-02-04T06:25:55;103325.53;;;5.07;85.06
26443;BME280;5563;52.296;6.806;2023-02-04T06:28:27;103330.84;;;5.06;85.26
26443;BME280;5563;52.296;6.806;2023-02-04T06:31:00;103341.41;;;5.06;85.30
26443;BME280;5563;52.296;6.806;2023-02-04T06:33:27;103336.13;;;5.06;85.38
26443;BME280;5563;52.296;6.806;2023-02-04T06:36:01;103335.31;;;5.02;85.63
26443;BME280;5563;52.296;6.806;2023-02-04T06:38:34;103355.59;;;5.03;85.55
26443;BME280;5563;52.296;6.806;2023-02-04T06:41:01;103359.09;;;5.02;86.02
26443;BME280;5563;52.296;6.806;2023-02-04T06:43:34;103356.47;;;5.02;85.99
26443;BME280;5563;52.296;6.806;2023-02-04T06:46:14;103355.63;;;5.02;85.72
26443;BME280;5563;52.296;6.806;2023-02-04T06:48:41;103365.28;;;5.03;85.81
26443;BME280;5563;52.296;6.806;2023-02-04T06:51:14;103359.09;;;5.02;85.77
26443;BME280;5563;52.296;6.806;2023-02-04T06:53:41;103357.41;;;5.00;86.18
26443;BME280;5563;52.296;6.806;2023-02-04T06:56:15;103367.88;;;5.04;86.16
26443;BME280;5563;52.296;6.806;2023-02-04T06:58:42;103365.22;;;5.06;86.40
26443;BME280;5563;52.296;6.806;2023-02-04T07:01:15;103366.97;;;5.07;86.28
26443;BME280;5563;52.296;6.806;2023-02-04T07:03:42;103369.63;;;5.07;86.34
26443;BME280;5563;52.296;6.806;2023-02-04T07:06:09;103385.38;;;5.11;86.54
26443;BME280;5563;52.296;6.806;2023-02-04T07:08:41;103377.44;;;5.11;86.41
26443;BME280;5563;52.296;6.806;2023-02-04T07:11:08;103389.78;;;5.12;86.44
26443;BME280;5563;52.296;6.806;2023-02-04T07:13:41;103390.66;;;5.14;86.24
26443;BME280;5563;52.296;6.806;2023-02-04T07:16:08;103379.22;;;5.12;85.94
26443;BME280;5563;52.296;6.806;2023-02-04T07:18:41;103380.97;;;5.12;86.42
26443;BME280;5563;52.296;6.806;2023-02-04T07:21:08;103391.50;;;5.15;86.21
26443;BME280;5563;52.296;6.806;2023-02-04T07:23:55;103387.97;;;5.16;86.15
26443;BME280;5563;52.296;6.806;2023-02-04T07:26:22;103386.16;;;5.16;86.01
26443;BME280;5563;52.296;6.806;2023-02-04T07:28:55;103396.75;;;5.16;86.19
26443;BME280;5563;52.296;6.806;2023-02-04T07:31:22;103401.19;;;5.16;86.04
26443;BME280;5563;52.296;6.806;2023-02-04T07:33:49;103407.31;;;5.16;86.18
26443;BME280;5563;52.296;6.806;2023-02-04T07:36:22;103414.41;;;5.16;86.16
26443;BME280;5563;52.296;6.806;2023-02-04T07:38:49;103411.81;;;5.14;86.44
26443;BME280;5563;52.296;6.806;2023-02-04T07:41:22;103420.53;;;5.16;86.23
26443;BME280;5563;52.296;6.806;2023-02-04T07:43:49;103417.91;;;5.18;86.68
26443;BME280;5563;52.296;6.806;2023-02-04T07:46:29;103416.09;;;5.18;86.38
26443;BME280;5563;52.296;6.806;2023-02-04T07:48:56;103423.19;;;5.18;86.39
26443;BME280;5563;52.296;6.806;2023-02-04T07:51:29;103431.09;;;5.19;86.53
26443;BME280;5563;52.296;6.806;2023-02-04T07:53:56;103437.22;;;5.21;86.60
26443;BME280;5563;52.296;6.806;2023-02-04T07:56:29;103435.41;;;5.23;86.54
26443;BME280;5563;52.296;6.806;2023-02-04T07:58:56;103439.78;;;5.26;86.67
26443;BME280;5563;52.296;6.806;2023-02-04T08:01:29;103438.88;;;5.27;86.92
26443;BME280;5563;52.296;6.806;2023-02-04T08:03:56;103451.97;;;5.34;86.71
26443;BME280;5563;52.296;6.806;2023-02-04T08:06:23;103454.59;;;5.36;86.69
26443;BME280;5563;52.296;6.806;2023-02-04T08:08:56;103465.09;;;5.40;86.98
26443;BME280;5563;52.296;6.806;2023-02-04T08:11:23;103465.88;;;5.45;86.40
26443;BME280;5563;52.296;6.806;2023-02-04T08:13:56;103464.09;;;5.47;86.68
26443;BME280;5563;52.296;6.806;2023-02-04T08:16:23;103467.44;;;5.56;86.59
26443;BME280;5563;52.296;6.806;2023-02-04T08:18:57;103468.25;;;5.62;86.32
26443;BME280;5563;52.296;6.806;2023-02-04T08:21:24;103483.97;;;5.68;86.28
26443;BME280;5563;52.296;6.806;2023-02-04T08:24:11;103470.72;;;5.70;85.98
26443;BME280;5563;52.296;6.806;2023-02-04T08:26:39;103481.19;;;5.76;85.97
26443;BME280;5563;52.296;6.806;2023-02-04T08:29:12;103484.63;;;5.81;85.69
26443;BME280;5563;52.296;6.806;2023-02-04T08:31:45;103485.50;;;5.81;85.62
26443;BME280;5563;52.296;6.806;2023-02-04T08:34:19;103481.94;;;5.84;85.66
26443;BME280;5563;52.296;6.806;2023-02-04T08:36:46;103473.16;;;5.83;85.89
26443;BME280;5563;52.296;6.806;2023-02-04T08:39:13;103481.88;;;5.88;85.75
26443;BME280;5563;52.296;6.806;2023-02-04T08:41:46;103479.19;;;5.90;85.80
26443;BME280;5563;52.296;6.806;2023-02-04T08:44:14;103481.81;;;5.91;85.78
26443;BME280;5563;52.296;6.806;2023-02-04T08:46:47;103483.38;;;6.00;85.64
26443;BME280;5563;52.296;6.806;2023-02-04T08:49:14;103477.19;;;6.02;85.48
26443;BME280;5563;52.296;6.806;2023-02-04T08:51:47;103480.56;;;6.09;85.56
26443;BME280;5563;52.296;6.806;2023-02-04T08:54:14;103485.75;;;6.15;85.54
26443;BME280;5563;52.296;6.806;2023-02-04T08:56:47;103487.44;;;6.19;85.24
26443;BME280;5563;52.296;6.806;2023-02-04T08:59:14;103494.44;;;6.21;85.38
26443;BME280;5563;52.296;6.806;2023-02-04T09:01:47;103497.84;;;6.26;85.36
26443;BME280;5563;52.296;6.806;2023-02-04T09:04:17;103493.34;;;6.30;85.30
26443;BME280;5563;52.296;6.806;2023-02-04T09:06:51;103498.53;;;6.36;85.15
26443;BME280;5563;52.296;6.806;2023-02-04T09:09:17;103492.25;;;6.41;85.09
26443;BME280;5563;52.296;6.806;2023-02-04T09:11:47;103502.75;;;6.44;84.94
26443;BME280;5563;52.296;6.806;2023-02-04T09:14:20;103503.50;;;6.51;84.69
26443;BME280;5563;52.296;6.806;2023-02-04T09:16:53;103504.28;;;6.56;84.60
26443;BME280;5563;52.296;6.806;2023-02-04T09:19:26;103509.53;;;6.59;84.93
26443;BME280;5563;52.296;6.806;2023-02-04T09:21:53;103502.38;;;6.63;84.56
26443;BME280;5563;52.296;6.806;2023-02-04T09:24:26;103509.25;;;6.71;84.71
26443;BME280;5563;52.296;6.806;2023-02-04T09:26:59;103512.69;;;6.75;84.55
26443;BME280;5563;52.296;6.806;2023-02-04T09:29:33;103520.47;;;6.82;84.12
26443;BME280;5563;52.296;6.806;2023-02-04T09:31:59;103518.56;;;6.89;84.17
26443;BME280;5563;52.296;6.806;2023-02-04T09:34:32;103512.44;;;6.85;84.30
26443;BME280;5563;52.296;6.806;2023-02-04T09:37:05;103533.53;;;6.91;83.81
26443;BME280;5563;52.296;6.806;2023-02-04T09:39:38;103535.31;;;6.91;84.04
26443;BME280;5563;52.296;6.806;2023-02-04T09:42:05;103525.56;;;6.91;83.91
26443;BME280;5563;52.296;6.806;2023-02-04T09:44:38;103525.47;;;6.96;83.76
26443;BME280;5563;52.296;6.806;2023-02-04T09:47:05;103526.25;;;6.99;83.77
26443;BME280;5563;52.296;6.806;2023-02-04T09:49:38;103521.75;;;7.03;83.77
26443;BME280;5563;52.296;6.806;2023-02-04T09:52:10;103525.13;;;7.11;83.73
26443;BME280;5563;52.296;6.806;2023-02-04T09:54:45;103530.06;;;7.24;83.55
26443;BME280;5563;52.296;6.806;2023-02-04T09:57:19;103536.09;;;7.32;83.31
26443;BME280;5563;52.296;6.806;2023-02-04T09:59:46;103532.50;;;7.33;83.07
26443;BME280;5563;52.296;6.806;2023-02-04T10:02:23;103531.66;;;7.31;82.87
26443;BME280;5563;52.296;6.806;2023-02-04T10:04:51;103536.03;;;7.34;82.67
26443;BME280;5563;52.296;6.806;2023-02-04T10:07:27;103538.53;;;7.40;82.54
26443;BME280;5563;52.296;6.806;2023-02-04T10:09:54;103540.19;;;7.44;81.86
26443;BME280;5563;52.296;6.806;2023-02-04T10:12:28;103545.41;;;7.47;82.38
26443;BME280;5563;52.296;6.806;2023-02-04T10:14:54;103551.53;;;7.50;81.92
26443;BME280;5563;52.296;6.806;2023-02-04T10:17:27;103555.06;;;7.51;81.67
26443;BME280;5563;52.296;6.806;2023-02-04T10:19:54;103555.06;;;7.51;81.72
26443;BME280;5563;52.296;6.806;2023-02-04T10:22:27;103559.50;;;7.50;81.31
26443;BME280;5563;52.296;6.806;2023-02-04T10:25:00;103560.34;;;7.52;81.70
26443;BME280;5563;52.296;6.806;2023-02-04T10:27:27;103567.41;;;7.53;81.21
26443;BME280;5563;52.296;6.806;2023-02-04T10:30:00;103574.47;;;7.53;81.33
26443;BME280;5563;52.296;6.806;2023-02-04T10:32:33;103562.13;;;7.52;81.17
26443;BME280;5563;52.296;6.806;2023-02-04T10:35:02;103571.03;;;7.49;81.01
26443;BME280;5563;52.296;6.806;2023-02-04T10:37:35;103567.63;;;7.44;81.25
26443;BME280;5563;52.296;6.806;2023-02-04T10:40:43;103577.19;;;7.51;81.10
26443;BME280;5563;52.296;6.806;2023-02-04T10:43:21;103581.53;;;7.54;80.58
26443;BME280;5563;52.296;6.806;2023-02-04T10:48:23;103582.50;;;7.51;80.83
26443;BME280;5563;52.296;6.806;2023-02-04T10:50:57;103578.91;;;7.52;80.80
26443;BME280;5563;52.296;6.806;2023-02-04T10:53:25;103586.88;;;7.52;80.49
26443;BME280;5563;52.296;6.806;2023-02-04T10:56:20;103577.44;;;7.41;80.30
26443;BME280;5563;52.296;6.806;2023-02-04T10:58:48;103593.25;;;7.45;80.23
26443;BME280;5563;52.296;6.806;2023-02-04T11:01:25;103591.56;;;7.43;80.01
26443;BME280;5563;52.296;6.806;2023-02-04T11:04:01;103589.00;;;7.38;79.25
26443;BME280;5563;52.296;6.806;2023-02-04T11:06:33;103585.59;;;7.33;79.22
26443;BME280;5563;52.296;6.806;2023-02-04T11:09:00;103582.94;;;7.33;79.49
26443;BME280;5563;52.296;6.806;2023-02-04T11:11:29;103583.69;;;7.38;79.67
26443;BME280;5563;52.296;6.806;2023-02-04T11:14:02;103582.72;;;7.42;79.48
26443;BME280;5563;52.296;6.806;2023-02-04T11:16:32;103580.09;;;7.41;78.45
26443;BME280;5563;52.296;6.806;2023-02-04T11:19:11;103579.94;;;7.47;78.49
26443;BME280;5563;52.296;6.806;2023-02-04T11:21:44;103585.94;;;7.55;78.21
26443;BME280;5563;52.296;6.806;2023-02-04T11:24:24;103584.94;;;7.94;79.23
26443;BME280;5563;52.296;6.806;2023-02-04T11:27:16;103586.78;;;8.24;77.82
26443;BME280;5563;52.296;6.806;2023-02-04T11:29:50;103584.31;;;8.49;77.78
26443;BME280;5563;52.296;6.806;2023-02-04T11:35:25;103581.19;;;9.22;76.28
26443;BME280;5563;52.296;6.806;2023-02-04T11:37:53;103571.66;;;9.67;76.75
26443;BME280;5563;52.296;6.806;2023-02-04T11:40:34;103573.25;;;10.24;72.89
26443;BME280;5563;52.296;6.806;2023-02-04T11:43:12;103569.97;;;10.40;72.26
26443;BME280;5563;52.296;6.806;2023-02-04T11:45:47;103568.81;;;10.47;73.91
26443;BME280;5563;52.296;6.806;2023-02-04T11:48:17;103560.06;;;10.44;72.42
26443;BME280;5563;52.296;6.806;2023-02-04T11:50:58;103565.41;;;10.44;72.42
26443;BME280;5563;52.296;6.806;2023-02-04T11:53:30;103574.03;;;10.50;71.39
26443;BME280;5563;52.296;6.806;2023-02-04T11:56:05;103580.44;;;10.69;70.16
26443;BME280;5563;52.296;6.806;2023-02-04T11:58:32;103564.78;;;10.83;70.66
26443;BME280;5563;52.296;6.806;2023-02-04T12:01:18;103570.78;;;10.88;70.06
26443;BME280;5563;52.296;6.806;2023-02-04T12:03:48;103578.81;;;10.88;69.75
26443;BME280;5563;52.296;6.806;2023-02-04T12:06:28;103583.91;;;10.71;69.00
26443;BME280;5563;52.296;6.806;2023-02-04T12:09:23;103576.31;;;10.61;69.92
26443;BME280;5563;52.296;6.806;2023-02-04T12:11:59;103587.50;;;10.70;69.59
26443;BME280;5563;52.296;6.806;2023-02-04T12:14:35;103573.78;;;11.03;70.50
26443;BME280;5563;52.296;6.806;2023-02-04T12:17:16;103586.34;;;11.65;69.05
26443;BME280;5563;52.296;6.806;2023-02-04T12:19:50;103582.44;;;11.74;67.42
26443;BME280;5563;52.296;6.806;2023-02-04T12:22:23;103579.84;;;11.51;67.47
26443;BME280;5563;52.296;6.806;2023-02-04T12:24:57;103582.25;;;11.14;67.68
26443;BME280;5563;52.296;6.806;2023-02-04T12:27:37;103575.53;;;10.57;67.80
26443;BME280;5563;52.296;6.806;2023-02-04T12:30:10;103581.81;;;10.09;68.77
26443;BME280;5563;52.296;6.806;2023-02-04T12:32:44;103571.47;;;9.73;69.77
26443;BME280;5563;52.296;6.806;2023-02-04T12:35:18;103582.75;;;9.55;70.09
26443;BME280;5563;52.296;6.806;2023-02-04T12:37:52;103566.94;;;9.23;70.03
26443;BME280;5563;52.296;6.806;2023-02-04T12:40:25;103580.72;;;9.08;70.50
26443;BME280;5563;52.296;6.806;2023-02-04T12:42:54;103576.84;;;8.91;70.85
26443;BME280;5563;52.296;6.806;2023-02-04T12:45:30;103581.75;;;8.75;71.35
26443;BME280;5563;52.296;6.806;2023-02-04T12:47:57;103582.84;;;8.68;71.38
26443;BME280;5563;52.296;6.806;2023-02-04T12:50:31;103588.41;;;8.90;71.66
26443;BME280;5563;52.296;6.806;2023-02-04T12:52:58;103577.78;;;9.17;71.41
26443;BME280;5563;52.296;6.806;2023-02-04T12:55:32;103585.59;;;9.49;69.93
26443;BME280;5563;52.296;6.806;2023-02-04T12:57:59;103599.84;;;9.74;68.67
26443;BME280;5563;52.296;6.806;2023-02-04T13:00:32;103591.28;;;9.91;68.69
26443;BME280;5563;52.296;6.806;2023-02-04T13:02:59;103588.00;;;10.34;67.58
26443;BME280;5563;52.296;6.806;2023-02-04T13:05:32;103597.09;;;10.76;66.19
26443;BME280;5563;52.296;6.806;2023-02-04T13:07:59;103582.69;;;11.03;65.51
26443;BME280;5563;52.296;6.806;2023-02-04T13:10:33;103582.97;;;11.39;65.57
26443;BME280;5563;52.296;6.806;2023-02-04T13:13:00;103574.53;;;11.71;63.62
26443;BME280;5563;52.296;6.806;2023-02-04T13:15:30;103577.59;;;12.04;62.79
26443;BME280;5563;52.296;6.806;2023-02-04T13:18:06;103582.38;;;12.36;62.84
26443;BME280;5563;52.296;6.806;2023-02-04T13:20:42;103571.00;;;12.69;62.00
26443;BME280;5563;52.296;6.806;2023-02-04T13:23:22;103575.06;;;12.96;59.49
26443;BME280;5563;52.296;6.806;2023-02-04T13:25:49;103573.25;;;12.78;59.54
26443;BME280;5563;52.296;6.806;2023-02-04T13:28:23;103573.97;;;12.82;61.90
26443;BME280;5563;52.296;6.806;2023-02-04T13:30:49;103567.88;;;12.97;59.69
26443;BME280;5563;52.296;6.806;2023-02-04T13:33:23;103572.31;;;13.17;59.27
26443;BME280;5563;52.296;6.806;2023-02-04T13:35:49;103576.06;;;13.31;57.54
26443;BME280;5563;52.296;6.806;2023-02-04T13:38:23;103572.44;;;13.32;56.37